sensor_id;sensor_type;location;lat;lon;timestamp;temperature;humidity
15115;DHT22;7658;51.456;7.622;2023-08-01T00:00:52;16.10;99.90
15115;DHT22;7658;51.456;7.622;2023-08-01T00:03:17;16.10;99.90
15115;DHT22;7658;51.456;7.622;2023-08-01T00:05:43;16.10;99.90
15115;DHT22;7658;51.456;7.622;2023-08-01T00:08:14;16.10;99.90
15115;DHT22;7658;51.456;7.622;2023-08-01T00:10:43;16.20;99.90
15115;DHT22;7658;51.456;7.622;2023-08-01T00:13:08;16.10;99.90
15115;DHT22;7658;51.456;7.622;2023-08-01T00:15:34;16.20;99.90
15115;DHT22;7658;51.456;7.622;2023-08-01T00:18:00;16.20;99.90
15115;DHT22;7658;51.456;7.622;2023-08-01T00:20:26;16.10;99.90
15115;DHT22;7658;51.456;7.622;2023-08-01T00:22:52;16.20;99.90
15115;DHT22;7658;51.456;7.622;2023-08-01T00:25:18;16.10;99.90
15115;DHT22;7658;51.456;7.622;2023-08-01T00:27:44;16.20;99.90
15115;DHT22;7658;51.456;7.622;2023-08-01T00:30:10;16.20;99.90
15115;DHT22;7658;51.456;7.622;2023-08-01T00:32:36;16.20;99.90
15115;DHT22;7658;51.456;7.622;2023-08-01T00:35:03;16.20;99.90
15115;DHT22;7658;51.456;7.622;2023-08-01T00:37:29;16.20;99.90
15115;DHT22;7658;51.456;7.622;2023-08-01T00:39:55;16.10;99.90
15115;DHT22;7658;51.456;7.622;2023-08-01T00:42:21;16.10;99.90
15115;DHT22;7658;51.456;7.622;2023-08-01T00:44:46;16.20;99.90
15115;DHT22;7658;51.456;7.622;2023-08-01T00:47:14;16.20;99.90
15115;DHT22;7658;51.456;7.622;2023-08-01T00:49:40;16.20;99.90
15115;DHT22;7658;51.456;7.622;2023-08-01T00:52:07;16.20;99.90
15115;DHT22;7658;51.456;7.622;2023-08-01T00:54:34;16.20;99.90
15115;DHT22;7658;51.456;7.622;2023-08-01T00:57:05;16.20;99.90
15115;DHT22;7658;51.456;7.622;2023-08-01T00:59:31;16.20;99.90
15115;DHT22;7658;51.456;7.622;2023-08-01T01:01:58;16.30;99.90
15115;DHT22;7658;51.456;7.622;2023-08-01T01:04:25;16.30;99.90
15115;DHT22;7658;51.456;7.622;2023-08-01T01:07:03;16.30;99.90
15115;DHT22;7658;51.456;7.622;2023-08-01T01:09:30;16.30;99.90
15115;DHT22;7658;51.456;7.622;2023-08-01T01:11:58;16.30;99.90
15115;DHT22;7658;51.456;7.622;2023-08-01T01:14:27;16.30;99.90
15115;DHT22;7658;51.456;7.622;2023-08-01T01:16:53;16.30;99.90
15115;DHT22;7658;51.456;7.622;2023-08-01T01:19:19;16.20;99.90
15115;DHT22;7658;51.456;7.622;2023-08-01T01:22:00;16.00;99.90
15115;DHT22;7658;51.456;7.622;2023-08-01T01:24:28;15.90;99.90
15115;DHT22;7658;51.456;7.622;2023-08-01T01:26:55;15.80;99.90
15115;DHT22;7658;51.456;7.622;2023-08-01T01:29:23;15.70;99.90
15115;DHT22;7658;51.456;7.622;2023-08-01T01:31:50;15.70;99.90
15115;DHT22;7658;51.456;7.622;2023-08-01T01:34:16;15.60;99.90
15115;DHT22;7658;51.456;7.622;2023-08-01T01:36:42;15.60;99.90
15115;DHT22;7658;51.456;7.622;2023-08-01T01:39:07;15.70;99.90
15115;DHT22;7658;51.456;7.622;2023-08-01T01:41:33;15.60;99.90
15115;DHT22;7658;51.456;7.622;2023-08-01T01:43:59;15.60;99.90
15115;DHT22;7658;51.456;7.622;2023-08-01T01:46:25;15.50;99.90
15115;DHT22;7658;51.456;7.622;2023-08-01T01:48:50;15.50;99.90
15115;DHT22;7658;51.456;7.622;2023-08-01T01:51:16;15.50;99.90
15115;DHT22;7658;51.456;7.622;2023-08-01T01:53:42;15.50;99.90
15115;DHT22;7658;51.456;7.622;2023-08-01T01:56:08;15.50;99.90
15115;DHT22;7658;51.456;7.622;2023-08-01T01:58:33;15.50;99.90
15115;DHT22;7658;51.456;7.622;2023-08-01T02:00:59;15.50;99.90
15115;DHT22;7658;51.456;7.622;2023-08-01T02:03:25;15.50;99.90
15115;DHT22;7658;51.456;7.622;2023-08-01T02:05:50;15.50;99.90
15115;DHT22;7658;51.456;7.622;2023-08-01T02:08:16;15.50;99.90
15115;DHT22;7658;51.456;7.622;2023-08-01T02:10:42;15.40;99.90
15115;DHT22;7658;51.456;7.622;2023-08-01T02:13:08;15.40;99.90
15115;DHT22;7658;51.456;7.622;2023-08-01T02:15:34;15.40;99.90
15115;DHT22;7658;51.456;7.622;2023-08-01T02:18:00;15.50;99.90
15115;DHT22;7658;51.456;7.622;2023-08-01T02:20:25;15.50;99.90
15115;DHT22;7658;51.456;7.622;2023-08-01T02:22:52;15.60;99.90
15115;DHT22;7658;51.456;7.622;2023-08-01T02:25:18;15.50;99.90
15115;DHT22;7658;51.456;7.622;2023-08-01T02:27:43;15.50;99.90
15115;DHT22;7658;51.456;7.622;2023-08-01T02:30:09;15.50;99.90
15115;DHT22;7658;51.456;7.622;2023-08-01T02:32:35;15.40;99.90
15115;DHT22;7658;51.456;7.622;2023-08-01T02:35:01;15.40;99.90
15115;DHT22;7658;51.456;7.622;2023-08-01T02:37:27;15.50;99.90
15115;DHT22;7658;51.456;7.622;2023-08-01T02:39:53;15.40;99.90
15115;DHT22;7658;51.456;7.622;2023-08-01T02:42:18;15.40;99.90
15115;DHT22;7658;51.456;7.622;2023-08-01T02:44:44;15.40;99.90
15115;DHT22;7658;51.456;7.622;2023-08-01T02:47:10;15.40;99.90
15115;DHT22;7658;51.456;7.622;2023-08-01T02:49:35;15.40;99.90
15115;DHT22;7658;51.456;7.622;2023-08-01T02:52:01;15.30;99.90
15115;DHT22;7658;51.456;7.622;2023-08-01T02:54:27;15.30;99.90
15115;DHT22;7658;51.456;7.622;2023-08-01T02:56:53;15.10;99.90
15115;DHT22;7658;51.456;7.622;2023-08-01T02:59:18;15.00;99.90
15115;DHT22;7658;51.456;7.622;2023-08-01T03:01:44;15.00;99.90
15115;DHT22;7658;51.456;7.622;2023-08-01T03:04:10;14.90;99.90
15115;DHT22;7658;51.456;7.622;2023-08-01T03:06:39;14.90;99.90
15115;DHT22;7658;51.456;7.622;2023-08-01T03:09:05;14.80;99.90
15115;DHT22;7658;51.456;7.622;2023-08-01T03:11:35;14.80;99.90
15115;DHT22;7658;51.456;7.622;2023-08-01T03:14:02;14.80;99.90
15115;DHT22;7658;51.456;7.622;2023-08-01T03:16:30;14.80;99.90
15115;DHT22;7658;51.456;7.622;2023-08-01T03:18:56;14.70;99.90
15115;DHT22;7658;51.456;7.622;2023-08-01T03:21:22;14.70;99.90
15115;DHT22;7658;51.456;7.622;2023-08-01T03:23:48;14.70;99.90
15115;DHT22;7658;51.456;7.622;2023-08-01T03:26:14;14.70;99.90
15115;DHT22;7658;51.456;7.622;2023-08-01T03:28:40;14.70;99.90
15115;DHT22;7658;51.456;7.622;2023-08-01T03:31:06;14.70;99.90
15115;DHT22;7658;51.456;7.622;2023-08-01T03:33:33;14.70;99.90
15115;DHT22;7658;51.456;7.622;2023-08-01T03:35:59;14.70;99.90
15115;DHT22;7658;51.456;7.622;2023-08-01T03:38:25;14.70;99.90
15115;DHT22;7658;51.456;7.622;2023-08-01T03:40:51;14.70;99.90
15115;DHT22;7658;51.456;7.622;2023-08-01T03:43:17;14.70;99.90
15115;DHT22;7658;51.456;7.622;2023-08-01T03:45:42;14.70;99.90
15115;DHT22;7658;51.456;7.622;2023-08-01T03:48:08;14.70;99.90
15115;DHT22;7658;51.456;7.622;2023-08-01T03:50:34;14.70;99.90
15115;DHT22;7658;51.456;7.622;2023-08-01T03:52:59;14.80;99.90
15115;DHT22;7658;51.456;7.622;2023-08-01T03:55:25;14.80;99.90
15115;DHT22;7658;51.456;7.622;2023-08-01T03:57:51;14.80;99.90
15115;DHT22;7658;51.456;7.622;2023-08-01T04:00:17;14.80;99.90
15115;DHT22;7658;51.456;7.622;2023-08-01T04:02:44;14.80;99.90
15115;DHT22;7658;51.456;7.622;2023-08-01T04:05:10;14.80;99.90
15115;DHT22;7658;51.456;7.622;2023-08-01T04:07:37;14.80;99.90
15115;DHT22;7658;51.456;7.622;2023-08-01T04:10:04;14.80;99.90
15115;DHT22;7658;51.456;7.622;2023-08-01T04:12:33;14.80;99.90
15115;DHT22;7658;51.456;7.622;2023-08-01T04:15:00;14.80;99.90
15115;DHT22;7658;51.456;7.622;2023-08-01T04:17:25;14.90;99.90
15115;DHT22;7658;51.456;7.622;2023-08-01T04:19:51;14.90;99.90
15115;DHT22;7658;51.456;7.622;2023-08-01T04:22:19;14.90;99.90
15115;DHT22;7658;51.456;7.622;2023-08-01T04:24:44;14.90;99.90
15115;DHT22;7658;51.456;7.622;2023-08-01T04:27:10;14.90;99.90
15115;DHT22;7658;51.456;7.622;2023-08-01T04:29:36;14.80;99.90
15115;DHT22;7658;51.456;7.622;2023-08-01T04:32:01;14.90;99.90
15115;DHT22;7658;51.456;7.622;2023-08-01T04:34:27;14.90;99.90
15115;DHT22;7658;51.456;7.622;2023-08-01T04:36:53;14.90;99.90
15115;DHT22;7658;51.456;7.622;2023-08-01T04:39:18;14.90;99.90
15115;DHT22;7658;51.456;7.622;2023-08-01T04:41:44;14.90;99.90
15115;DHT22;7658;51.456;7.622;2023-08-01T04:44:10;14.90;99.90
15115;DHT22;7658;51.456;7.622;2023-08-01T04:46:36;14.90;99.90
15115;DHT22;7658;51.456;7.622;2023-08-01T04:49:01;14.90;99.90
15115;DHT22;7658;51.456;7.622;2023-08-01T04:51:27;14.80;99.90
15115;DHT22;7658;51.456;7.622;2023-08-01T04:53:53;14.80;99.90
15115;DHT22;7658;51.456;7.622;2023-08-01T04:56:19;14.70;99.90
15115;DHT22;7658;51.456;7.622;2023-08-01T04:58:44;14.70;99.90
15115;DHT22;7658;51.456;7.622;2023-08-01T05:01:10;14.70;99.90
15115;DHT22;7658;51.456;7.622;2023-08-01T05:03:36;14.60;99.90
15115;DHT22;7658;51.456;7.622;2023-08-01T05:06:02;14.70;99.90
15115;DHT22;7658;51.456;7.622;2023-08-01T05:08:27;14.60;99.90
15115;DHT22;7658;51.456;7.622;2023-08-01T05:10:53;14.70;99.90
15115;DHT22;7658;51.456;7.622;2023-08-01T05:13:19;14.70;99.90
15115;DHT22;7658;51.456;7.622;2023-08-01T05:15:45;14.70;99.90
15115;DHT22;7658;51.456;7.622;2023-08-01T05:18:16;14.70;99.90
15115;DHT22;7658;51.456;7.622;2023-08-01T05:20:41;14.70;99.90
15115;DHT22;7658;51.456;7.622;2023-08-01T05:23:07;14.70;99.90
15115;DHT22;7658;51.456;7.622;2023-08-01T05:25:33;14.70;99.90
15115;DHT22;7658;51.456;7.622;2023-08-01T05:27:59;14.70;99.90
15115;DHT22;7658;51.456;7.622;2023-08-01T05:30:25;14.70;99.90
15115;DHT22;7658;51.456;7.622;2023-08-01T05:32:50;14.70;99.90
15115;DHT22;7658;51.456;7.622;2023-08-01T05:35:17;14.70;99.90
15115;DHT22;7658;51.456;7.622;2023-08-01T05:37:43;14.60;99.90
15115;DHT22;7658;51.456;7.622;2023-08-01T05:40:09;14.60;99.90
15115;DHT22;7658;51.456;7.622;2023-08-01T05:42:35;14.60;99.90
15115;DHT22;7658;51.456;7.622;2023-08-01T05:45:01;14.60;99.90
15115;DHT22;7658;51.456;7.622;2023-08-01T05:47:26;14.60;99.90
15115;DHT22;7658;51.456;7.622;2023-08-01T05:49:52;14.60;99.90
15115;DHT22;7658;51.456;7.622;2023-08-01T05:52:18;14.60;99.90
15115;DHT22;7658;51.456;7.622;2023-08-01T05:54:44;14.60;99.90
15115;DHT22;7658;51.456;7.622;2023-08-01T05:57:09;14.60;99.90
15115;DHT22;7658;51.456;7.622;2023-08-01T05:59:36;14.60;99.90
15115;DHT22;7658;51.456;7.622;2023-08-01T06:02:02;14.70;99.90
15115;DHT22;7658;51.456;7.622;2023-08-01T06:04:28;14.70;99.90
15115;DHT22;7658;51.456;7.622;2023-08-01T06:06:54;14.70;99.90
15115;DHT22;7658;51.456;7.622;2023-08-01T06:09:19;14.70;99.90
15115;DHT22;7658;51.456;7.622;2023-08-01T06:11:45;14.70;99.90
15115;DHT22;7658;51.456;7.622;2023-08-01T06:14:11;14.70;99.90
15115;DHT22;7658;51.456;7.622;2023-08-01T06:16:37;14.70;99.90
15115;DHT22;7658;51.456;7.622;2023-08-01T06:19:03;14.70;99.90
15115;DHT22;7658;51.456;7.622;2023-08-01T06:21:29;14.70;99.90
15115;DHT22;7658;51.456;7.622;2023-08-01T06:23:55;14.80;99.90
15115;DHT22;7658;51.456;7.622;2023-08-01T06:26:21;14.70;99.90
15115;DHT22;7658;51.456;7.622;2023-08-01T06:28:46;14.80;99.90
15115;DHT22;7658;51.456;7.622;2023-08-01T06:31:12;14.80;99.90
15115;DHT22;7658;51.456;7.622;2023-08-01T06:33:38;14.80;99.90
15115;DHT22;7658;51.456;7.622;2023-08-01T06:36:05;14.90;99.90
15115;DHT22;7658;51.456;7.622;2023-08-01T06:38:30;14.90;99.90
15115;DHT22;7658;51.456;7.622;2023-08-01T06:40:56;14.90;99.90
15115;DHT22;7658;51.456;7.622;2023-08-01T06:43:22;15.00;99.90
15115;DHT22;7658;51.456;7.622;2023-08-01T06:45:50;15.00;99.90
15115;DHT22;7658;51.456;7.622;2023-08-01T06:48:16;15.00;99.90
15115;DHT22;7658;51.456;7.622;2023-08-01T06:50:41;15.00;99.90
15115;DHT22;7658;51.456;7.622;2023-08-01T06:53:07;15.00;99.90
15115;DHT22;7658;51.456;7.622;2023-08-01T06:55:34;15.00;99.90
15115;DHT22;7658;51.456;7.622;2023-08-01T06:57:59;15.10;99.90
15115;DHT22;7658;51.456;7.622;2023-08-01T07:00:25;15.10;99.90
15115;DHT22;7658;51.456;7.622;2023-08-01T07:02:51;15.20;99.90
15115;DHT22;7658;51.456;7.622;2023-08-01T07:05:17;15.20;99.90
15115;DHT22;7658;51.456;7.622;2023-08-01T07:07:42;15.20;99.90
15115;DHT22;7658;51.456;7.622;2023-08-01T07:10:09;15.20;99.90
15115;DHT22;7658;51.456;7.622;2023-08-01T07:12:34;15.30;99.90
15115;DHT22;7658;51.456;7.622;2023-08-01T07:15:00;15.40;99.90
15115;DHT22;7658;51.456;7.622;2023-08-01T07:17:26;15.40;99.90
15115;DHT22;7658;51.456;7.622;2023-08-01T07:19:52;15.60;99.90
15115;DHT22;7658;51.456;7.622;2023-08-01T07:22:19;15.70;99.90
15115;DHT22;7658;51.456;7.622;2023-08-01T07:24:44;15.80;99.90
15115;DHT22;7658;51.456;7.622;2023-08-01T07:27:10;15.80;99.90
15115;DHT22;7658;51.456;7.622;2023-08-01T07:29:37;15.80;99.90
15115;DHT22;7658;51.456;7.622;2023-08-01T07:32:04;15.70;99.90
15115;DHT22;7658;51.456;7.622;2023-08-01T07:34:29;15.70;99.90
15115;DHT22;7658;51.456;7.622;2023-08-01T07:36:55;15.70;99.90
15115;DHT22;7658;51.456;7.622;2023-08-01T07:39:21;15.80;99.90
15115;DHT22;7658;51.456;7.622;2023-08-01T07:41:47;15.90;99.90
15115;DHT22;7658;51.456;7.622;2023-08-01T07:44:13;15.90;99.90
15115;DHT22;7658;51.456;7.622;2023-08-01T07:46:38;15.90;99.90
15115;DHT22;7658;51.456;7.622;2023-08-01T07:49:04;16.00;99.90
15115;DHT22;7658;51.456;7.622;2023-08-01T07:51:30;16.00;99.90
15115;DHT22;7658;51.456;7.622;2023-08-01T07:53:56;16.00;99.90
15115;DHT22;7658;51.456;7.622;2023-08-01T07:56:22;16.10;99.90
15115;DHT22;7658;51.456;7.622;2023-08-01T07:58:48;16.10;99.90
15115;DHT22;7658;51.456;7.622;2023-08-01T08:01:13;16.10;99.90
15115;DHT22;7658;51.456;7.622;2023-08-01T08:03:39;16.10;99.90
15115;DHT22;7658;51.456;7.622;2023-08-01T08:06:05;16.20;99.90
15115;DHT22;7658;51.456;7.622;2023-08-01T08:08:31;16.40;99.90
15115;DHT22;7658;51.456;7.622;2023-08-01T08:10:59;16.40;99.90
15115;DHT22;7658;51.456;7.622;2023-08-01T08:13:26;16.30;99.90
15115;DHT22;7658;51.456;7.622;2023-08-01T08:15:54;16.40;99.90
15115;DHT22;7658;51.456;7.622;2023-08-01T08:18:20;16.40;99.90
15115;DHT22;7658;51.456;7.622;2023-08-01T08:20:46;16.50;99.90
15115;DHT22;7658;51.456;7.622;2023-08-01T08:23:12;16.60;99.90
15115;DHT22;7658;51.456;7.622;2023-08-01T08:25:44;16.70;99.90
15115;DHT22;7658;51.456;7.622;2023-08-01T08:28:13;16.90;99.90
15115;DHT22;7658;51.456;7.622;2023-08-01T08:30:39;17.00;99.90
15115;DHT22;7658;51.456;7.622;2023-08-01T08:33:05;16.90;99.90
15115;DHT22;7658;51.456;7.622;2023-08-01T08:35:33;16.80;99.90
15115;DHT22;7658;51.456;7.622;2023-08-01T08:38:03;16.80;99.90
15115;DHT22;7658;51.456;7.622;2023-08-01T08:40:32;16.80;99.90
15115;DHT22;7658;51.456;7.622;2023-08-01T08:43:01;16.90;99.90
15115;DHT22;7658;51.456;7.622;2023-08-01T08:45:29;17.10;99.90
15115;DHT22;7658;51.456;7.622;2023-08-01T08:48:01;17.30;99.90
15115;DHT22;7658;51.456;7.622;2023-08-01T08:50:30;17.70;99.90
15115;DHT22;7658;51.456;7.622;2023-08-01T08:52:56;18.10;99.90
15115;DHT22;7658;51.456;7.622;2023-08-01T08:55:24;18.60;99.90
15115;DHT22;7658;51.456;7.622;2023-08-01T08:57:51;18.70;99.90
15115;DHT22;7658;51.456;7.622;2023-08-01T09:00:18;18.60;99.90
15115;DHT22;7658;51.456;7.622;2023-08-01T09:02:45;18.60;99.90
15115;DHT22;7658;51.456;7.622;2023-08-01T09:05:11;18.50;99.90
15115;DHT22;7658;51.456;7.622;2023-08-01T09:07:42;18.50;99.90
15115;DHT22;7658;51.456;7.622;2023-08-01T09:10:08;18.70;99.90
15115;DHT22;7658;51.456;7.622;2023-08-01T09:12:34;18.50;99.90
15115;DHT22;7658;51.456;7.622;2023-08-01T09:15:01;18.80;99.90
15115;DHT22;7658;51.456;7.622;2023-08-01T09:17:27;19.00;99.90
15115;DHT22;7658;51.456;7.622;2023-08-01T09:20:05;19.10;99.90
15115;DHT22;7658;51.456;7.622;2023-08-01T09:22:44;19.20;99.90
15115;DHT22;7658;51.456;7.622;2023-08-01T09:25:11;19.30;99.90
15115;DHT22;7658;51.456;7.622;2023-08-01T09:27:37;19.00;99.90
15115;DHT22;7658;51.456;7.622;2023-08-01T09:30:13;18.80;99.90
15115;DHT22;7658;51.456;7.622;2023-08-01T09:32:51;18.70;99.90
15115;DHT22;7658;51.456;7.622;2023-08-01T09:35:17;18.50;99.90
15115;DHT22;7658;51.456;7.622;2023-08-01T09:37:43;18.10;99.90
15115;DHT22;7658;51.456;7.622;2023-08-01T09:40:10;17.80;99.90
15115;DHT22;7658;51.456;7.622;2023-08-01T09:42:44;17.80;99.90
15115;DHT22;7658;51.456;7.622;2023-08-01T09:47:40;18.50;99.90
15115;DHT22;7658;51.456;7.622;2023-08-01T09:50:06;18.90;99.90
15115;DHT22;7658;51.456;7.622;2023-08-01T09:52:33;19.30;99.90
15115;DHT22;7658;51.456;7.622;2023-08-01T09:54:59;19.50;99.90
15115;DHT22;7658;51.456;7.622;2023-08-01T09:57:28;19.80;99.90
15115;DHT22;7658;51.456;7.622;2023-08-01T09:59:56;20.10;99.90
15115;DHT22;7658;51.456;7.622;2023-08-01T10:02:24;20.10;99.90
15115;DHT22;7658;51.456;7.622;2023-08-01T10:04:53;20.40;99.90
15115;DHT22;7658;51.456;7.622;2023-08-01T10:07:25;20.00;99.90
15115;DHT22;7658;51.456;7.622;2023-08-01T10:09:57;19.70;99.90
15115;DHT22;7658;51.456;7.622;2023-08-01T10:12:26;19.90;99.90
15115;DHT22;7658;51.456;7.622;2023-08-01T10:14:53;20.10;99.90
15115;DHT22;7658;51.456;7.622;2023-08-01T10:17:20;20.30;99.90
15115;DHT22;7658;51.456;7.622;2023-08-01T10:19:49;20.30;99.90
15115;DHT22;7658;51.456;7.622;2023-08-01T10:22:17;20.00;99.90
15115;DHT22;7658;51.456;7.622;2023-08-01T10:24:44;19.70;99.90
15115;DHT22;7658;51.456;7.622;2023-08-01T10:27:15;19.70;99.90
15115;DHT22;7658;51.456;7.622;2023-08-01T10:29:42;19.90;99.90
15115;DHT22;7658;51.456;7.622;2023-08-01T10:32:07;20.10;99.90
15115;DHT22;7658;51.456;7.622;2023-08-01T10:34:33;20.40;99.90
15115;DHT22;7658;51.456;7.622;2023-08-01T10:36:59;20.30;99.90
15115;DHT22;7658;51.456;7.622;2023-08-01T10:39:27;20.20;99.90
15115;DHT22;7658;51.456;7.622;2023-08-01T10:42:00;20.10;99.90
15115;DHT22;7658;51.456;7.622;2023-08-01T10:44:27;19.80;99.90
15115;DHT22;7658;51.456;7.622;2023-08-01T10:46:55;19.50;99.90
15115;DHT22;7658;51.456;7.622;2023-08-01T10:49:37;19.00;99.90
15115;DHT22;7658;51.456;7.622;2023-08-01T10:52:15;18.30;99.90
15115;DHT22;7658;51.456;7.622;2023-08-01T10:54:41;17.70;99.90
15115;DHT22;7658;51.456;7.622;2023-08-01T10:57:07;17.30;99.90
15115;DHT22;7658;51.456;7.622;2023-08-01T10:59:34;17.20;99.90
15115;DHT22;7658;51.456;7.622;2023-08-01T11:02:00;17.00;99.90
15115;DHT22;7658;51.456;7.622;2023-08-01T11:04:27;16.90;99.90
15115;DHT22;7658;51.456;7.622;2023-08-01T11:06:54;17.00;99.90
15115;DHT22;7658;51.456;7.622;2023-08-01T11:09:25;17.10;99.90
15115;DHT22;7658;51.456;7.622;2023-08-01T11:11:54;17.30;99.90
15115;DHT22;7658;51.456;7.622;2023-08-01T11:14:22;17.50;99.90
15115;DHT22;7658;51.456;7.622;2023-08-01T11:16:48;17.80;99.90
15115;DHT22;7658;51.456;7.622;2023-08-01T11:19:25;18.10;99.90
15115;DHT22;7658;51.456;7.622;2023-08-01T11:21:52;18.40;99.90
15115;DHT22;7658;51.456;7.622;2023-08-01T11:24:19;18.60;99.90
15115;DHT22;7658;51.456;7.622;2023-08-01T11:26:47;19.00;99.90
15115;DHT22;7658;51.456;7.622;2023-08-01T11:29:13;19.40;99.90
15115;DHT22;7658;51.456;7.622;2023-08-01T11:31:40;19.70;99.90
15115;DHT22;7658;51.456;7.622;2023-08-01T11:34:07;19.80;99.90
15115;DHT22;7658;51.456;7.622;2023-08-01T11:36:36;19.80;99.90
15115;DHT22;7658;51.456;7.622;2023-08-01T11:39:02;19.60;99.90
15115;DHT22;7658;51.456;7.622;2023-08-01T11:41:29;19.20;99.90
15115;DHT22;7658;51.456;7.622;2023-08-01T11:43:54;18.60;99.90
15115;DHT22;7658;51.456;7.622;2023-08-01T11:46:22;18.10;99.90
15115;DHT22;7658;51.456;7.622;2023-08-01T11:48:48;17.70;99.90
15115;DHT22;7658;51.456;7.622;2023-08-01T11:51:16;17.50;99.90
15115;DHT22;7658;51.456;7.622;2023-08-01T11:53:41;17.20;99.90
15115;DHT22;7658;51.456;7.622;2023-08-01T11:56:07;17.20;99.90
15115;DHT22;7658;51.456;7.622;2023-08-01T11:58:36;17.40;99.90
15115;DHT22;7658;51.456;7.622;2023-08-01T12:01:12;17.40;99.90
15115;DHT22;7658;51.456;7.622;2023-08-01T12:03:54;17.50;99.90
15115;DHT22;7658;51.456;7.622;2023-08-01T12:06:22;17.50;99.90
15115;DHT22;7658;51.456;7.622;2023-08-01T12:08:50;17.40;99.90
15115;DHT22;7658;51.456;7.622;2023-08-01T12:11:23;17.20;99.90
15115;DHT22;7658;51.456;7.622;2023-08-01T12:14:11;17.00;99.90
15115;DHT22;7658;51.456;7.622;2023-08-01T12:16:38;16.90;99.90
15115;DHT22;7658;51.456;7.622;2023-08-01T12:19:05;16.90;99.90
15115;DHT22;7658;51.456;7.622;2023-08-01T12:21:32;16.70;99.90
15115;DHT22;7658;51.456;7.622;2023-08-01T12:23:58;16.60;99.90
15115;DHT22;7658;51.456;7.622;2023-08-01T12:26:24;16.50;99.90
15115;DHT22;7658;51.456;7.622;2023-08-01T12:28:50;16.30;99.90
15115;DHT22;7658;51.456;7.622;2023-08-01T12:31:17;16.10;99.90
15115;DHT22;7658;51.456;7.622;2023-08-01T12:33:44;16.10;99.90
15115;DHT22;7658;51.456;7.622;2023-08-01T12:36:11;16.30;99.90
15115;DHT22;7658;51.456;7.622;2023-08-01T12:38:37;16.80;99.90
15115;DHT22;7658;51.456;7.622;2023-08-01T12:41:02;17.30;99.90
15115;DHT22;7658;51.456;7.622;2023-08-01T12:43:28;17.40;99.90
15115;DHT22;7658;51.456;7.622;2023-08-01T12:45:54;17.40;99.90
15115;DHT22;7658;51.456;7.622;2023-08-01T12:48:22;17.30;99.90
15115;DHT22;7658;51.456;7.622;2023-08-01T12:50:47;17.20;99.90
15115;DHT22;7658;51.456;7.622;2023-08-01T12:53:16;17.10;99.90
15115;DHT22;7658;51.456;7.622;2023-08-01T12:55:49;17.00;99.90
15115;DHT22;7658;51.456;7.622;2023-08-01T12:58:15;17.00;99.90
15115;DHT22;7658;51.456;7.622;2023-08-01T13:00:42;16.90;99.90
15115;DHT22;7658;51.456;7.622;2023-08-01T13:03:08;17.00;99.90
15115;DHT22;7658;51.456;7.622;2023-08-01T13:05:38;17.10;99.90
15115;DHT22;7658;51.456;7.622;2023-08-01T13:08:04;17.10;99.90
15115;DHT22;7658;51.456;7.622;2023-08-01T13:10:32;17.30;99.90
15115;DHT22;7658;51.456;7.622;2023-08-01T13:12:58;17.40;99.90
15115;DHT22;7658;51.456;7.622;2023-08-01T13:15:24;17.50;99.90
15115;DHT22;7658;51.456;7.622;2023-08-01T13:17:50;17.60;99.90
15115;DHT22;7658;51.456;7.622;2023-08-01T13:20:16;17.50;99.90
15115;DHT22;7658;51.456;7.622;2023-08-01T13:22:45;17.50;99.90
15115;DHT22;7658;51.456;7.622;2023-08-01T13:25:10;17.50;99.90
15115;DHT22;7658;51.456;7.622;2023-08-01T13:27:36;17.50;99.90
15115;DHT22;7658;51.456;7.622;2023-08-01T13:30:02;17.50;99.90
15115;DHT22;7658;51.456;7.622;2023-08-01T13:32:28;17.60;99.90
15115;DHT22;7658;51.456;7.622;2023-08-01T13:34:54;17.70;99.90
15115;DHT22;7658;51.456;7.622;2023-08-01T13:37:20;18.00;99.90
15115;DHT22;7658;51.456;7.622;2023-08-01T13:39:45;18.60;99.90
15115;DHT22;7658;51.456;7.622;2023-08-01T13:42:14;19.40;99.90
15115;DHT22;7658;51.456;7.622;2023-08-01T13:44:41;20.10;99.90
15115;DHT22;7658;51.456;7.622;2023-08-01T13:47:06;20.20;99.90
15115;DHT22;7658;51.456;7.622;2023-08-01T13:49:32;20.10;99.90
15115;DHT22;7658;51.456;7.622;2023-08-01T13:51:59;20.30;99.90
15115;DHT22;7658;51.456;7.622;2023-08-01T13:54:25;20.70;99.90
15115;DHT22;7658;51.456;7.622;2023-08-01T13:56:51;20.50;99.90
15115;DHT22;7658;51.456;7.622;2023-08-01T13:59:18;20.60;99.90
15115;DHT22;7658;51.456;7.622;2023-08-01T14:01:45;20.80;99.90
15115;DHT22;7658;51.456;7.622;2023-08-01T14:04:11;21.00;99.90
15115;DHT22;7658;51.456;7.622;2023-08-01T14:06:40;21.10;99.90
15115;DHT22;7658;51.456;7.622;2023-08-01T14:09:09;21.10;99.90
15115;DHT22;7658;51.456;7.622;2023-08-01T14:11:36;20.80;91.80
15115;DHT22;7658;51.456;7.622;2023-08-01T14:14:01;20.90;99.90
15115;DHT22;7658;51.456;7.622;2023-08-01T14:16:28;21.00;99.90
15115;DHT22;7658;51.456;7.622;2023-08-01T14:18:54;20.70;99.90
15115;DHT22;7658;51.456;7.622;2023-08-01T14:21:20;20.30;99.90
15115;DHT22;7658;51.456;7.622;2023-08-01T14:23:46;19.70;99.90
15115;DHT22;7658;51.456;7.622;2023-08-01T14:26:11;19.20;99.90
15115;DHT22;7658;51.456;7.622;2023-08-01T14:28:37;19.00;99.90
15115;DHT22;7658;51.456;7.622;2023-08-01T14:31:03;18.80;99.90
15115;DHT22;7658;51.456;7.622;2023-08-01T14:33:30;18.70;99.90
15115;DHT22;7658;51.456;7.622;2023-08-01T14:35:56;18.60;99.90
15115;DHT22;7658;51.456;7.622;2023-08-01T14:38:22;18.60;99.90
15115;DHT22;7658;51.456;7.622;2023-08-01T14:40:48;18.70;99.90
15115;DHT22;7658;51.456;7.622;2023-08-01T14:43:14;18.80;99.90
15115;DHT22;7658;51.456;7.622;2023-08-01T14:45:40;19.10;99.90
15115;DHT22;7658;51.456;7.622;2023-08-01T14:48:07;19.60;99.90
15115;DHT22;7658;51.456;7.622;2023-08-01T14:50:33;20.30;99.90
15115;DHT22;7658;51.456;7.622;2023-08-01T14:53:00;20.90;99.90
15115;DHT22;7658;51.456;7.622;2023-08-01T14:55:28;21.20;5.20
15115;DHT22;7658;51.456;7.622;2023-08-01T14:57:54;21.60;1.00
15115;DHT22;7658;51.456;7.622;2023-08-01T15:00:20;21.50;1.00
15115;DHT22;7658;51.456;7.622;2023-08-01T15:02:46;21.80;1.00
15115;DHT22;7658;51.456;7.622;2023-08-01T15:05:13;22.30;1.00
15115;DHT22;7658;51.456;7.622;2023-08-01T15:07:39;22.60;1.00
15115;DHT22;7658;51.456;7.622;2023-08-01T15:10:05;22.50;1.00
15115;DHT22;7658;51.456;7.622;2023-08-01T15:12:31;22.40;1.00
15115;DHT22;7658;51.456;7.622;2023-08-01T15:14:57;21.70;1.00
15115;DHT22;7658;51.456;7.622;2023-08-01T15:17:23;20.90;1.00
15115;DHT22;7658;51.456;7.622;2023-08-01T15:19:49;20.40;1.00
15115;DHT22;7658;51.456;7.622;2023-08-01T15:22:15;20.50;96.10
15115;DHT22;7658;51.456;7.622;2023-08-01T15:24:42;21.00;49.30
15115;DHT22;7658;51.456;7.622;2023-08-01T15:27:08;21.70;1.00
15115;DHT22;7658;51.456;7.622;2023-08-01T15:29:33;22.10;99.90
15115;DHT22;7658;51.456;7.622;2023-08-01T15:31:59;22.10;99.90
15115;DHT22;7658;51.456;7.622;2023-08-01T15:34:25;22.10;99.90
15115;DHT22;7658;51.456;7.622;2023-08-01T15:36:51;21.60;1.00
15115;DHT22;7658;51.456;7.622;2023-08-01T15:39:17;21.30;99.90
15115;DHT22;7658;51.456;7.622;2023-08-01T15:41:43;20.80;1.00
15115;DHT22;7658;51.456;7.622;2023-08-01T15:44:08;20.50;1.00
15115;DHT22;7658;51.456;7.622;2023-08-01T15:46:35;20.20;1.00